Time;durP1;ratioP1;P1;durP2;ratioP2;P2;SDS_P1;SDS_P2;PMS_P1;PMS_P2;Temp;Humidity;BMP_temperature;BMP_pressure;BME280_temperature;BME280_humidity;BME280_pressure;Samples;Min_cycle;Max_cycle;Signal;HPM_P1;HPM_P2
2022/12/05 00:01:17;;;;;;;17.17;10.27;;;;;;;3.39;100.00;97962.84;4935747;29;20213;-84
2022/12/05 00:03:44;;;;;;;16.80;9.77;;;;;;;3.33;100.00;97969.19;4935457;29;20235;-84
2022/12/05 00:06:10;;;;;;;20.87;10.47;;;;;;;3.36;100.00;97973.44;4934952;29;20235;-84
2022/12/05 00:08:38;;;;;;;17.23;10.17;;;;;;;3.31;100.00;97972.78;4935672;29;20516;-85
2022/12/05 00:11:11;;;;;;;15.73;10.27;;;;;;;3.33;100.00;97971.78;4935504;29;20212;-85
2022/12/05 00:13:38;;;;;;;16.80;9.63;;;;;;;3.33;100.00;97970.94;4935521;29;20220;-85
2022/12/05 00:16:08;;;;;;;19.33;11.30;;;;;;;3.32;100.00;97975.34;4934872;29;20256;-85
2022/12/05 00:18:35;;;;;;;19.50;10.40;;;;;;;3.31;100.00;97973.59;4935638;29;20208;-85
2022/12/05 00:21:01;;;;;;;18.37;10.73;;;;;;;3.38;100.00;97972.44;4935483;29;20572;-85
2022/12/05 00:23:28;;;;;;;17.97;10.97;;;;;;;3.33;100.00;97982.25;4935584;29;20212;-84
2022/12/05 00:25:56;;;;;;;19.03;10.00;;;;;;;3.36;100.00;97976.88;4934866;29;20243;-85
2022/12/05 00:28:23;;;;;;;16.60;9.20;;;;;;;3.38;100.00;97968.97;4934936;29;20216;-85
2022/12/05 00:30:49;;;;;;;19.13;9.73;;;;;;;3.35;100.00;97969.97;4935451;29;20230;-84
2022/12/05 00:33:15;;;;;;;17.70;9.97;;;;;;;3.31;100.00;97960.53;4935429;29;20212;-84
2022/12/05 00:35:42;;;;;;;19.13;10.83;;;;;;;3.32;100.00;97970.09;4935110;29;20350;-84
2022/12/05 00:38:08;;;;;;;18.00;9.73;;;;;;;3.32;100.00;97970.09;4955330;29;20204;-85
2022/12/05 00:40:35;;;;;;;20.10;10.40;;;;;;;3.35;100.00;97967.34;4958517;29;20260;-84
2022/12/05 00:43:03;;;;;;;19.20;9.80;;;;;;;3.35;100.00;97969.09;4952778;29;20209;-85
2022/12/05 00:45:30;;;;;;;19.10;10.47;;;;;;;3.36;100.00;97963.81;4935186;29;20719;-85
2022/12/05 00:47:57;;;;;;;19.40;10.53;;;;;;;3.36;100.00;97961.19;4935324;29;20211;-85
2022/12/05 00:50:23;;;;;;;20.83;11.23;;;;;;;3.36;100.00;97965.59;4935157;29;20216;-86
2022/12/05 00:52:50;;;;;;;21.00;9.87;;;;;;;3.45;100.00;97971.25;4934763;29;20216;-85
2022/12/05 00:55:16;;;;;;;17.23;9.80;;;;;;;3.38;100.00;97967.22;4934625;29;20239;-85
2022/12/05 00:57:43;;;;;;;18.97;10.13;;;;;;;3.36;100.00;97970.81;4934340;29;20220;-85
2022/12/05 01:00:12;;;;;;;19.27;10.07;;;;;;;3.31;100.00;97975.38;4934744;29;20218;-85
2022/12/05 01:02:38;;;;;;;17.97;10.63;;;;;;;3.31;100.00;97984.06;4934459;29;20212;-85
2022/12/05 01:05:06;;;;;;;21.03;11.20;;;;;;;3.31;100.00;97988.44;4934500;29;20212;-85
2022/12/05 01:07:32;;;;;;;19.87;10.43;;;;;;;3.28;100.00;97991.16;4934456;29;20303;-84
2022/12/05 01:09:59;;;;;;;18.37;9.80;;;;;;;3.27;100.00;97997.31;4934396;29;20215;-84
2022/12/05 01:12:26;;;;;;;20.53;11.43;;;;;;;3.29;100.00;98001.56;4934731;29;20706;-84
2022/12/05 01:14:53;;;;;;;19.73;10.23;;;;;;;3.29;100.00;98001.56;4934416;29;20263;-84
2022/12/05 01:17:21;;;;;;;18.87;10.60;;;;;;;3.27;100.00;98002.53;4933655;29;20301;-85
2022/12/05 01:19:47;;;;;;;20.30;9.93;;;;;;;3.26;100.00;98006.06;4934404;29;20212;-85
2022/12/05 01:22:14;;;;;;;18.87;10.43;;;;;;;3.28;100.00;98025.97;4934181;29;20220;-85
2022/12/05 01:24:40;;;;;;;21.63;10.37;;;;;;;3.34;100.00;98030.94;4934183;29;20263;-85
2022/12/05 01:27:07;;;;;;;19.83;10.30;;;;;;;3.31;100.00;98036.28;4933980;29;20236;-84
2022/12/05 01:29:33;;;;;;;20.03;10.43;;;;;;;3.29;100.00;98038.13;4934620;29;20239;-85
2022/12/05 01:32:00;;;;;;;18.23;11.00;;;;;;;3.31;100.00;98033.69;4934264;29;20223;-85
2022/12/05 01:34:28;;;;;;;19.43;10.13;;;;;;;3.28;100.00;98033.81;4934431;29;20220;-85
2022/12/05 01:36:54;;;;;;;21.93;10.90;;;;;;;3.25;100.00;98031.31;4933794;29;20239;-85
2022/12/05 01:39:21;;;;;;;20.47;9.93;;;;;;;3.22;100.00;98034.06;4934770;29;20231;-85
2022/12/05 01:41:49;;;;;;;18.77;9.97;;;;;;;3.29;100.00;98030.28;4934339;29;20299;-85
2022/12/05 01:44:54;;;;;;;22.00;11.27;;;;;;;3.32;100.00;98038.00;4934113;29;20213;-85
2022/12/05 01:47:24;;;;;;;19.57;10.27;;;;;;;3.26;100.00;98024.34;4933683;29;20242;-84
2022/12/05 01:49:53;;;;;;;22.90;10.83;;;;;;;3.29;100.00;98026.81;4933935;29;20601;-85
2022/12/05 01:52:23;;;;;;;19.90;10.43;;;;;;;3.26;100.00;98027.81;4933936;29;20679;-85
2022/12/05 01:54:52;;;;;;;20.30;10.33;;;;;;;3.16;100.00;98021.28;4934205;29;20263;-85
2022/12/05 01:57:18;;;;;;;21.03;10.77;;;;;;;3.10;100.00;98031.09;4933779;29;20223;-85
2022/12/05 01:59:49;;;;;;;19.63;10.60;;;;;;;3.05;100.00;98031.31;4933747;29;20683;-85
2022/12/05 02:02:16;;;;;;;19.73;10.07;;;;;;;3.05;100.00;98023.47;4932286;29;20223;-85
2022/12/05 02:04:50;;;;;;;17.67;9.93;;;;;;;3.09;100.00;98035.50;4934107;29;20213;-85
2022/12/05 02:07:19;;;;;;;18.50;9.57;;;;;;;3.06;100.00;98035.59;4933308;29;20242;-85
2022/12/05 02:09:49;;;;;;;19.70;10.10;;;;;;;3.08;100.00;98039.03;4934095;29;20218;-85
2022/12/05 02:12:15;;;;;;;19.93;10.23;;;;;;;3.11;100.00;98036.28;4933931;29;20212;-85
2022/12/05 02:14:50;;;;;;;17.10;9.30;;;;;;;3.03;100.00;98035.75;4933754;29;20209;-85
2022/12/05 02:17:23;;;;;;;19.00;10.47;;;;;;;3.02;100.00;98041.03;4933839;29;20228;-85
2022/12/05 02:20:07;;;;;;;19.17;10.47;;;;;;;2.94;100.00;98051.78;4934126;29;20247;-85
2022/12/05 02:23:15;;;;;;;17.23;9.53;;;;;;;2.97;100.00;98056.03;4933954;29;20219;-85
2022/12/05 02:25:59;;;;;;;20.90;10.90;;;;;;;3.07;100.00;98058.19;4933868;29;20278;-85
2022/12/05 02:29:15;;;;;;;19.80;9.40;;;;;;;3.04;100.00;98049.63;4936993;29;20647;-85
2022/12/05 02:31:51;;;;;;;18.20;10.63;;;;;;;3.06;100.00;98055.66;4915981;29;20212;-85
2022/12/05 02:34:22;;;;;;;18.57;9.83;;;;;;;3.04;100.00;98055.72;4936282;29;20216;-85
2022/12/05 02:36:57;;;;;;;19.87;10.47;;;;;;;3.09;100.00;98060.75;4936974;29;20236;-85
2022/12/05 02:39:29;;;;;;;18.33;10.13;;;;;;;3.13;100.00;98078.81;4937156;29;20216;-85
2022/12/05 02:42:02;;;;;;;15.80;8.93;;;;;;;3.15;100.00;98082.25;4937092;29;20706;-84
2022/12/05 02:44:35;;;;;;;18.27;10.30;;;;;;;3.19;100.00;98099.47;4937011;29;20309;-85
2022/12/05 02:47:04;;;;;;;16.13;8.80;;;;;;;3.24;100.00;98096.69;4936795;29;20633;-86
2022/12/05 02:49:35;;;;;;;17.10;9.50;;;;;;;3.27;100.00;98086.09;4936906;29;20212;-84
2022/12/05 02:52:03;;;;;;;15.83;9.30;;;;;;;3.26;100.00;98079.19;4937372;29;20227;-84
2022/12/05 02:54:36;;;;;;;15.63;9.57;;;;;;;3.29;100.00;98072.06;4936948;29;20216;-85
2022/12/05 02:57:03;;;;;;;15.83;8.67;;;;;;;3.33;100.00;98081.50;4936845;29;20318;-85
2022/12/05 02:59:30;;;;;;;16.83;8.57;;;;;;;3.40;100.00;98082.06;4936746;29;20223;-85
2022/12/05 03:01:57;;;;;;;15.20;8.60;;;;;;;3.34;100.00;98082.31;4937001;29;20212;-85
2022/12/05 03:04:26;;;;;;;15.40;8.50;;;;;;;3.40;100.00;98098.59;4936825;29;20208;-85
2022/12/05 03:06:56;;;;;;;15.30;8.80;;;;;;;3.40;100.00;98098.59;4936179;29;20264;-85
2022/12/05 03:09:28;;;;;;;14.23;8.07;;;;;;;3.37;100.00;98097.88;4936992;29;20213;-85
2022/12/05 03:12:01;;;;;;;14.23;8.70;;;;;;;3.35;100.00;98082.28;4937153;29;20359;-86
2022/12/05 03:14:33;;;;;;;13.50;8.50;;;;;;;3.39;100.00;98086.47;4936949;29;20209;-85
2022/12/05 03:17:02;;;;;;;17.20;9.30;;;;;;;3.34;100.00;98083.19;4936401;29;20243;-86
2022/12/05 03:19:34;;;;;;;20.23;9.77;;;;;;;3.40;100.00;98072.50;4936373;29;20213;-85
2022/12/05 03:22:07;;;;;;;15.93;8.40;;;;;;;3.40;100.00;98076.84;4936688;29;20201;-85
2022/12/05 03:24:37;;;;;;;14.43;8.37;;;;;;;3.34;100.00;98071.88;4936630;29;20668;-85
2022/12/05 03:27:10;;;;;;;19.17;8.97;;;;;;;3.35;100.00;98064.00;4936006;29;20263;-84
2022/12/05 03:29:45;;;;;;;16.90;9.30;;;;;;;3.36;100.00;98070.91;4936288;29;20232;-85
2022/12/05 03:32:21;;;;;;;16.33;9.10;;;;;;;3.36;100.00;98070.91;4936414;29;20674;-84
2022/12/05 03:34:58;;;;;;;15.43;8.80;;;;;;;3.37;100.00;98067.38;4936466;29;20581;-84
2022/12/05 03:37:30;;;;;;;18.13;9.53;;;;;;;3.36;100.00;98076.13;4936109;29;20679;-84
2022/12/05 03:40:05;;;;;;;16.27;8.07;;;;;;;3.35;100.00;98084.88;4935717;29;20219;-85
2022/12/05 03:42:35;;;;;;;13.27;7.53;;;;;;;3.33;100.00;98081.50;4936295;29;20216;-83
2022/12/05 03:45:08;;;;;;;18.47;9.53;;;;;;;3.38;100.00;98084.78;4936046;29;20220;-84
2022/12/05 03:47:41;;;;;;;15.70;7.93;;;;;;;3.41;100.00;98082.00;4935866;29;20332;-85
2022/12/05 03:50:15;;;;;;;12.07;7.47;;;;;;;3.43;100.00;98085.41;4937110;29;20679;-84
2022/12/05 03:52:46;;;;;;;14.90;8.80;;;;;;;3.43;100.00;98082.78;4944021;29;20200;-84
2022/12/05 03:55:13;;;;;;;17.10;9.63;;;;;;;3.45;100.00;98080.97;4960686;29;20240;-83
2022/12/05 03:57:44;;;;;;;16.27;7.47;;;;;;;3.47;100.00;98086.13;4958635;29;20209;-85
2022/12/05 04:00:14;;;;;;;17.30;8.23;;;;;;;3.45;100.00;98099.28;4940956;29;20220;-86
2022/12/05 04:02:48;;;;;;;14.17;7.47;;;;;;;3.50;100.00;98092.09;4937563;29;20694;-85
2022/12/05 04:05:20;;;;;;;16.47;9.37;;;;;;;3.53;100.00;98085.88;4937398;29;20664;-85
2022/12/05 04:07:53;;;;;;;15.20;8.93;;;;;;;3.52;100.00;98090.25;4935454;29;20236;-84
2022/12/05 04:10:24;;;;;;;16.07;8.43;;;;;;;3.53;100.00;98081.50;4935660;29;20209;-86
2022/12/05 04:12:54;;;;;;;14.70;8.33;;;;;;;3.53;100.00;98078.91;4935650;29;20213;-84
2022/12/05 04:17:01;;;;;;;15.47;8.43;;;;;;;3.53;100.00;98081.50;4935242;29;20236;-81
2022/12/05 04:18:19;;;;;;;14.07;7.87;;;;;;;3.51;100.00;98079.88;4934993;29;20213;-85
2022/12/05 04:23:34;;;;;;;15.77;7.67;;;;;;;3.46;100.00;98087.91;4935705;29;20202;-85
2022/12/05 04:26:19;;;;;;;14.30;7.97;;;;;;;3.50;100.00;98094.72;4934891;29;20777;-84
2022/12/05 04:28:56;;;;;;;16.97;8.83;;;;;;;3.58;100.00;98091.75;4935193;29;20231;-84
2022/12/05 04:31:25;;;;;;;16.83;8.87;;;;;;;3.61;100.00;98096.88;4935078;29;20209;-85
2022/12/05 04:33:55;;;;;;;18.10;9.33;;;;;;;3.52;100.00;98092.88;4935001;29;20214;-84
2022/12/05 04:36:30;;;;;;;14.57;8.40;;;;;;;3.49;100.00;98103.44;4934587;29;20236;-85
2022/12/05 04:39:02;;;;;;;14.43;8.37;;;;;;;3.45;100.00;98099.28;4934957;29;20689;-84
2022/12/05 04:41:34;;;;;;;17.23;8.57;;;;;;;3.50;100.00;98099.94;4935060;29;20217;-85
2022/12/05 04:44:06;;;;;;;14.43;8.40;;;;;;;3.54;100.00;98122.38;4934834;29;20702;-84
2022/12/05 04:46:35;;;;;;;16.37;9.07;;;;;;;3.52;100.00;98108.56;4934429;29;20229;-84
2022/12/05 04:49:05;;;;;;;17.80;9.43;;;;;;;3.61;100.00;98117.78;4934943;29;20240;-83
2022/12/05 04:51:35;;;;;;;14.80;9.20;;;;;;;3.56;100.00;98111.88;4934201;29;20219;-84
2022/12/05 04:54:06;;;;;;;15.50;8.90;;;;;;;3.53;100.00;98115.47;4934855;29;20220;-84
2022/12/05 04:56:36;;;;;;;15.50;8.27;;;;;;;3.56;100.00;98119.72;4934302;29;20236;-84
2022/12/05 04:59:03;;;;;;;14.43;8.20;;;;;;;3.59;100.00;98120.44;4934526;29;20215;-84
2022/12/05 05:01:33;;;;;;;14.27;7.67;;;;;;;3.61;100.00;98118.59;4934772;29;20216;-84
2022/12/05 05:04:06;;;;;;;15.57;8.80;;;;;;;3.67;100.00;98118.34;4934871;29;20634;-84
2022/12/05 05:06:37;;;;;;;15.77;8.00;;;;;;;3.65;100.00;98114.97;4956919;23;20697;-77
2022/12/05 05:09:04;;;;;;;16.77;8.47;;;;;;;3.64;100.00;98118.50;4953579;28;20232;-76
2022/12/05 05:11:33;;;;;;;15.93;8.23;;;;;;;3.60;100.00;98122.13;4953150;28;20212;-76
2022/12/05 05:14:00;;;;;;;14.80;8.80;;;;;;;3.64;100.00;98128.94;4953266;28;20568;-76
2022/12/05 05:16:29;;;;;;;15.37;7.87;;;;;;;3.65;100.00;98128.03;4943652;28;20233;-76
2022/12/05 05:18:56;;;;;;;13.83;8.33;;;;;;;3.61;100.00;98123.81;4934144;29;20204;-76
2022/12/05 05:21:25;;;;;;;15.97;8.70;;;;;;;3.57;100.00;98127.50;4934436;29;20205;-75
2022/12/05 05:23:53;;;;;;;16.23;7.97;;;;;;;3.60;100.00;98137.81;4934043;29;20696;-75
2022/12/05 05:26:21;;;;;;;15.03;8.60;;;;;;;3.59;100.00;98125.66;4933708;29;20237;-76
2022/12/05 05:28:48;;;;;;;15.60;7.93;;;;;;;3.56;100.00;98124.94;4934087;29;20238;-76
2022/12/05 05:31:16;;;;;;;16.60;9.10;;;;;;;3.57;100.00;98127.50;4934224;29;20212;-76
2022/12/05 05:33:43;;;;;;;16.40;8.67;;;;;;;3.57;100.00;98132.72;4933749;29;20216;-76
2022/12/05 05:36:11;;;;;;;16.40;9.20;;;;;;;3.58;100.00;98155.34;4933794;29;20707;-76
2022/12/05 05:38:39;;;;;;;16.30;9.37;;;;;;;3.63;100.00;98171.69;4933678;29;20209;-78
2022/12/05 05:41:13;;;;;;;19.83;9.97;;;;;;;3.60;100.00;98169.16;4933679;29;20230;-76
2022/12/05 05:43:40;;;;;;;16.87;9.20;;;;;;;3.61;100.00;98170.88;4933850;29;20216;-78
2022/12/05 05:46:07;;;;;;;17.67;9.10;;;;;;;3.60;100.00;98179.63;4933383;29;20233;-76
2022/12/05 05:48:33;;;;;;;17.77;9.73;;;;;;;3.61;100.00;98170.88;4933507;29;20742;-75
2022/12/05 05:51:00;;;;;;;17.93;9.50;;;;;;;3.60;100.00;98177.00;4933661;29;20219;-76
2022/12/05 05:53:26;;;;;;;19.20;9.33;;;;;;;3.66;100.00;98175.94;4933544;29;20209;-78
2022/12/05 05:55:53;;;;;;;13.87;9.07;;;;;;;3.73;100.00;98178.19;4933335;29;20247;-76
2022/12/05 05:58:21;;;;;;;17.23;9.70;;;;;;;3.66;100.00;98174.16;4933601;29;20279;-77
2022/12/05 06:00:47;;;;;;;17.07;9.27;;;;;;;3.68;100.00;98177.53;4933579;29;20680;-77
2022/12/05 06:03:14;;;;;;;17.77;9.57;;;;;;;3.67;100.00;98170.63;4936364;29;20324;-77
2022/12/05 06:05:41;;;;;;;17.80;9.53;;;;;;;3.67;100.00;98175.84;4937032;29;20228;-77
2022/12/05 06:08:07;;;;;;;14.97;8.77;;;;;;;3.64;100.00;98165.53;4937161;29;20247;-77
2022/12/05 06:10:34;;;;;;;17.83;9.83;;;;;;;3.64;100.00;98165.53;4937433;29;20239;-77
2022/12/05 06:13:00;;;;;;;16.13;9.30;;;;;;;3.69;100.00;98153.13;4937210;29;20216;-78
2022/12/05 06:15:28;;;;;;;16.87;9.80;;;;;;;3.73;100.00;98159.91;4937315;29;20225;-78
2022/12/05 06:17:56;;;;;;;16.83;9.13;;;;;;;3.74;100.00;98155.53;4937006;29;20305;-78
2022/12/05 06:20:23;;;;;;;15.43;8.33;;;;;;;3.73;100.00;98157.28;4937125;29;20239;-76
2022/12/05 06:22:49;;;;;;;18.27;9.17;;;;;;;3.72;100.00;98163.44;4937269;29;20322;-76
2022/12/05 06:25:16;;;;;;;16.80;9.57;;;;;;;3.79;100.00;98167.50;4937141;29;20306;-76
2022/12/05 06:27:42;;;;;;;19.37;10.23;;;;;;;3.76;100.00;98170.25;4936992;29;20238;-76
2022/12/05 06:30:10;;;;;;;16.73;9.63;;;;;;;3.77;100.00;98177.16;4937086;29;20224;-78
2022/12/05 06:32:37;;;;;;;20.17;10.70;;;;;;;3.76;100.00;98175.47;4937123;29;20238;-76
2022/12/05 06:35:13;;;;;;;18.07;9.50;;;;;;;3.80;100.00;98169.19;4936611;29;20231;-76
2022/12/05 06:37:40;;;;;;;16.50;10.20;;;;;;;3.78;100.00;98168.41;4936812;29;20239;-76
2022/12/05 06:40:08;;;;;;;16.83;9.27;;;;;;;3.76;100.00;98191.16;4937027;29;20586;-76
2022/12/05 06:42:34;;;;;;;21.20;10.60;;;;;;;3.74;100.00;98203.41;4937059;29;20588;-78
2022/12/05 06:45:01;;;;;;;19.03;10.33;;;;;;;3.76;100.00;98212.06;4936800;29;20216;-77
2022/12/05 06:47:27;;;;;;;17.27;9.33;;;;;;;3.78;100.00;98212.03;4936324;29;20228;-76
2022/12/05 06:49:55;;;;;;;18.07;10.00;;;;;;;3.75;100.00;98215.59;4936569;29;20216;-76
2022/12/05 06:52:21;;;;;;;23.23;11.03;;;;;;;3.76;100.00;98216.44;4936764;29;20212;-76
2022/12/05 06:54:48;;;;;;;18.47;9.30;;;;;;;3.81;100.00;98215.34;4936728;29;20208;-77
2022/12/05 06:57:15;;;;;;;19.00;10.47;;;;;;;3.84;100.00;98214.38;4936401;29;20247;-76
2022/12/05 06:59:41;;;;;;;16.10;9.00;;;;;;;3.86;100.00;98221.22;4936461;29;20240;-76
2022/12/05 07:02:10;;;;;;;20.10;11.33;;;;;;;3.92;100.00;98210.50;4936366;29;20213;-76
2022/12/05 07:04:36;;;;;;;18.63;9.73;;;;;;;3.91;100.00;98218.44;4936562;29;20220;-76
2022/12/05 07:07:04;;;;;;;16.63;9.13;;;;;;;3.92;100.00;98223.56;4936058;29;20248;-76
2022/12/05 07:12:12;;;;;;;16.77;9.33;;;;;;;3.94;100.00;98220.91;4936414;29;20688;-76
2022/12/05 07:14:38;;;;;;;17.73;10.53;;;;;;;3.95;100.00;98220.00;4935222;29;20219;-76
2022/12/05 07:17:05;;;;;;;17.23;9.80;;;;;;;3.95;100.00;98218.25;4936235;29;20323;-75
2022/12/05 07:19:31;;;;;;;18.93;9.60;;;;;;;3.98;100.00;98217.25;4936440;29;20676;-76
2022/12/05 07:21:58;;;;;;;16.00;9.33;;;;;;;4.00;100.00;98216.28;4936506;29;20212;-76
2022/12/05 07:24:26;;;;;;;17.93;9.67;;;;;;;3.96;100.00;98213.84;4936229;29;20209;-76
2022/12/05 07:26:52;;;;;;;20.40;9.90;;;;;;;3.96;100.00;98219.06;4935780;29;20244;-76
2022/12/05 07:29:19;;;;;;;16.27;9.60;;;;;;;3.99;100.00;98234.66;4935923;29;20260;-76
2022/12/05 07:31:45;;;;;;;19.30;10.97;;;;;;;4.25;100.00;98231.78;4935859;29;20229;-79
2022/12/05 07:34:12;;;;;;;16.53;10.33;;;;;;;4.23;100.00;98242.28;4936177;29;20208;-77
2022/12/05 07:36:39;;;;;;;16.93;10.03;;;;;;;4.22;100.00;98230.13;4935666;29;20240;-77
2022/12/05 07:39:05;;;;;;;14.50;9.17;;;;;;;4.22;100.00;98235.38;4935712;29;20680;-77
2022/12/05 07:41:34;;;;;;;27.10;15.20;;;;;;;4.19;100.00;98243.38;4935630;29;20218;-77
2022/12/05 07:44:01;;;;;;;19.57;9.63;;;;;;;4.10;100.00;98238.50;4935956;29;20561;-76
2022/12/05 07:46:28;;;;;;;18.93;10.80;;;;;;;4.14;100.00;98249.69;4935561;29;20233;-76
2022/12/05 07:48:55;;;;;;;17.47;11.00;;;;;;;4.12;100.00;98252.38;4935780;29;20233;-76
2022/12/05 07:51:22;;;;;;;17.03;9.43;;;;;;;4.22;100.00;98243.22;4935581;29;20687;-76
2022/12/05 07:53:48;;;;;;;19.23;10.00;;;;;;;4.23;100.00;98250.16;4935583;29;20330;-76
2022/12/05 07:56:17;;;;;;;18.17;9.77;;;;;;;4.22;100.00;98251.06;4935109;29;20237;-78
2022/12/05 07:58:46;;;;;;;20.07;10.33;;;;;;;4.22;100.00;98245.84;4935933;29;20584;-78
2022/12/05 08:01:15;;;;;;;16.27;9.73;;;;;;;4.21;100.00;98246.75;4935536;29;20687;-78
2022/12/05 08:03:42;;;;;;;16.13;9.10;;;;;;;4.24;100.00;98251.00;4935423;29;20220;-78
2022/12/05 08:06:10;;;;;;;19.00;10.83;;;;;;;4.26;100.00;98255.25;4935019;29;20250;-78
2022/12/05 08:08:37;;;;;;;16.03;9.60;;;;;;;4.25;100.00;98250.94;4935246;29;20237;-76
2022/12/05 08:11:05;;;;;;;14.63;8.63;;;;;;;4.29;100.00;98255.13;4935422;29;20204;-75
2022/12/05 08:13:32;;;;;;;19.20;10.57;;;;;;;4.35;100.00;98254.84;4935354;29;20224;-77
2022/12/05 08:16:02;;;;;;;20.67;10.50;;;;;;;4.38;100.00;98259.13;4935234;29;20228;-77
2022/12/05 08:18:29;;;;;;;17.33;9.90;;;;;;;4.28;100.00;98248.19;4935189;29;20209;-81
2022/12/05 08:21:00;;;;;;;16.50;10.30;;;;;;;4.36;100.00;98253.09;4935082;29;20232;-79
2022/12/05 08:23:28;;;;;;;16.80;9.80;;;;;;;4.38;100.00;98259.97;4935020;29;20217;-80
2022/12/05 08:25:55;;;;;;;15.73;9.83;;;;;;;4.34;100.00;98263.63;4934891;29;20229;-80
2022/12/05 08:28:21;;;;;;;17.73;10.63;;;;;;;4.51;100.00;98269.00;4934855;29;20235;-78
2022/12/05 08:30:48;;;;;;;17.17;10.20;;;;;;;4.49;100.00;98272.59;4934880;29;20684;-79
2022/12/05 08:33:15;;;;;;;17.57;10.43;;;;;;;4.50;100.00;98269.91;4934922;29;20209;-76
2022/12/05 08:35:42;;;;;;;16.47;9.80;;;;;;;4.51;100.00;98266.38;4934559;29;20245;-76
2022/12/05 08:38:08;;;;;;;16.53;10.20;;;;;;;4.48;100.00;98279.63;4934526;29;20209;-76
2022/12/05 08:40:35;;;;;;;15.50;9.33;;;;;;;4.41;100.00;98280.75;4934942;29;20580;-77
2022/12/05 08:43:01;;;;;;;15.67;9.47;;;;;;;4.41;100.00;98301.69;4934535;29;20685;-77
2022/12/05 08:45:28;;;;;;;14.13;8.33;;;;;;;4.41;100.00;98296.47;4934555;29;20198;-77
2022/12/05 08:47:54;;;;;;;14.57;9.33;;;;;;;4.45;100.00;98302.44;4934456;29;20347;-77
2022/12/05 08:50:22;;;;;;;18.53;10.27;;;;;;;4.45;100.00;98302.44;4934638;29;20219;-77
2022/12/05 08:52:49;;;;;;;14.50;8.80;;;;;;;4.47;100.00;98296.19;4934382;29;20214;-78
2022/12/05 08:55:15;;;;;;;16.97;8.97;;;;;;;4.49;100.00;98294.41;4934565;29;20214;-81
2022/12/05 08:57:42;;;;;;;15.73;9.07;;;;;;;4.47;100.00;98301.44;4934201;29;20216;-77
2022/12/05 09:00:09;;;;;;;14.63;9.07;;;;;;;4.51;100.00;98302.16;4934427;29;20584;-79
2022/12/05 09:02:36;;;;;;;16.93;9.67;;;;;;;4.51;100.00;98310.88;4934397;29;20596;-77
2022/12/05 09:05:02;;;;;;;13.73;8.83;;;;;;;4.49;100.00;98310.09;4934268;29;20218;-78
2022/12/05 09:07:30;;;;;;;15.67;9.47;;;;;;;4.53;100.00;98306.41;4938832;29;20242;-79
2022/12/05 09:09:56;;;;;;;14.50;8.60;;;;;;;4.55;100.00;98302.00;4950329;29;20242;-79
2022/12/05 09:12:23;;;;;;;16.90;9.90;;;;;;;4.60;100.00;98302.66;4948940;29;20217;-80
2022/12/05 09:14:49;;;;;;;15.70;9.77;;;;;;;4.66;100.00;98301.53;4934424;29;20213;-80
2022/12/05 09:17:16;;;;;;;12.73;8.10;;;;;;;4.70;100.00;98306.53;4934079;29;20243;-79
2022/12/05 09:19:43;;;;;;;17.90;8.87;;;;;;;4.72;100.00;98320.44;4933929;29;20209;-80
2022/12/05 09:22:10;;;;;;;15.20;9.40;;;;;;;4.79;100.00;98318.41;4933895;29;20566;-79
2022/12/05 09:24:38;;;;;;;15.97;9.20;;;;;;;4.84;100.00;98327.75;4934358;29;20230;-79
2022/12/05 09:27:04;;;;;;;14.67;9.63;;;;;;;4.94;100.00;98323.81;4933697;29;20240;-79
2022/12/05 09:29:31;;;;;;;16.13;9.50;;;;;;;4.97;100.00;98331.56;4934276;29;20392;-80
2022/12/05 09:31:57;;;;;;;14.57;9.13;;;;;;;4.94;100.00;98336.91;4934221;29;20229;-81
2022/12/05 09:34:24;;;;;;;16.97;9.30;;;;;;;4.93;100.00;98332.59;4934118;29;20229;-80
2022/12/05 09:36:51;;;;;;;15.17;9.23;;;;;;;4.99;100.00;98337.56;4933170;29;20240;-79
2022/12/05 09:39:19;;;;;;;16.87;9.40;;;;;;;4.97;100.00;98339.41;4934201;29;20237;-79
2022/12/05 09:42:17;;;;;;;16.33;8.67;;;;;;;4.99;100.00;98339.31;4934070;29;20483;-79
2022/12/05 09:45:19;;;;;;;14.40;8.40;;;;;;;4.99;100.00;98334.94;4934084;29;20245;-78
2022/12/05 09:47:52;;;;;;;14.33;8.23;;;;;;;5.01;100.00;98343.56;4932807;29;20213;-83
2022/12/05 09:50:21;;;;;;;13.93;8.43;;;;;;;5.05;100.00;98341.66;4934044;29;20235;-77
2022/12/05 09:53:01;;;;;;;15.90;8.30;;;;;;;5.05;100.00;98342.53;4933896;29;20727;-79
2022/12/05 09:55:33;;;;;;;14.23;9.23;;;;;;;5.12;100.00;98338.72;4934043;29;20283;-80
2022/12/05 09:58:03;;;;;;;13.87;9.57;;;;;;;5.08;100.00;98339.75;4932645;29;20217;-79
2022/12/05 10:00:32;;;;;;;15.97;9.13;;;;;;;5.15;100.00;98341.22;4933064;29;20590;-79
2022/12/05 10:03:12;;;;;;;13.80;8.47;;;;;;;5.07;100.00;98324.97;4933794;29;20217;-78
2022/12/05 10:05:44;;;;;;;13.03;7.90;;;;;;;5.08;100.00;98334.53;4932456;29;20245;-79
2022/12/05 10:08:19;;;;;;;12.80;8.23;;;;;;;5.07;100.00;98330.22;4933657;29;20596;-78
2022/12/05 10:10:56;;;;;;;14.17;8.73;;;;;;;5.10;100.00;98342.31;4933896;29;20218;-77
2022/12/05 10:13:39;;;;;;;14.30;8.97;;;;;;;5.14;100.00;98342.13;4932293;29;20214;-78
2022/12/05 10:16:11;;;;;;;14.17;8.80;;;;;;;5.15;100.00;98346.47;4933574;29;20234;-79
2022/12/05 10:18:42;;;;;;;14.63;9.23;;;;;;;5.10;100.00;98345.81;4932659;29;20677;-78
2022/12/05 10:21:15;;;;;;;16.70;9.00;;;;;;;5.07;100.00;98345.94;4932760;29;20220;-80
2022/12/05 10:23:51;;;;;;;13.43;8.77;;;;;;;5.05;100.00;98352.16;4933801;29;20273;-79
2022/12/05 10:26:20;;;;;;;16.87;8.70;;;;;;;4.98;100.00;98346.34;4931215;29;20239;-77
2022/12/05 10:28:55;;;;;;;14.33;8.97;;;;;;;4.94;100.00;98347.38;4933266;29;20718;-78
2022/12/05 10:31:25;;;;;;;14.17;9.70;;;;;;;4.96;100.00;98345.53;4933470;29;20225;-77
2022/12/05 10:33:58;;;;;;;17.57;10.37;;;;;;;4.97;100.00;98328.94;4931429;29;20218;-79
2022/12/05 10:36:25;;;;;;;15.83;10.20;;;;;;;4.91;100.00;98329.19;4933252;29;20733;-77
2022/12/05 10:38:52;;;;;;;18.27;11.10;;;;;;;4.96;100.00;98327.22;4932988;29;20216;-83
2022/12/05 10:41:19;;;;;;;14.47;9.77;;;;;;;4.90;100.00;98327.47;4931640;29;20209;-78
2022/12/05 10:43:48;;;;;;;17.83;10.40;;;;;;;4.94;100.00;98330.84;4933495;29;20220;-77
2022/12/05 10:46:16;;;;;;;17.43;10.27;;;;;;;4.96;100.00;98331.63;4933492;29;20649;-79
2022/12/05 10:48:43;;;;;;;18.07;9.87;;;;;;;4.94;100.00;98338.69;4933984;29;20281;-78
2022/12/05 10:51:14;;;;;;;14.80;9.40;;;;;;;4.92;100.00;98333.50;4936930;29;20681;-79
2022/12/05 10:53:42;;;;;;;16.43;10.00;;;;;;;5.01;100.00;98330.47;4949471;29;20221;-78
2022/12/05 10:56:40;;;;;;;14.00;9.83;;;;;;;5.11;100.00;98326.56;4953105;29;20235;-79
2022/12/05 10:59:09;;;;;;;16.83;10.00;;;;;;;5.21;100.00;98333.09;4937366;29;20214;-78
2022/12/05 11:01:37;;;;;;;17.50;10.10;;;;;;;5.23;100.00;98343.47;4935406;29;20241;-78
2022/12/05 11:04:18;;;;;;;16.30;9.87;;;;;;;5.24;100.00;98338.19;4936299;29;20218;-78
2022/12/05 11:06:51;;;;;;;16.07;10.20;;;;;;;5.23;100.00;98336.47;4956492;23;20237;-81
2022/12/05 11:09:20;;;;;;;15.23;9.63;;;;;;;5.29;100.00;98336.22;4946628;28;20280;-82
2022/12/05 11:12:14;;;;;;;14.80;9.90;;;;;;;5.40;100.00;98328.72;4953109;29;20245;-81
2022/12/05 11:14:53;;;;;;;19.07;11.43;;;;;;;5.52;100.00;98322.91;4954814;28;20211;-81
2022/12/05 11:17:25;;;;;;;14.27;9.30;;;;;;;5.61;100.00;98317.22;4941448;28;20241;-82
2022/12/05 11:19:51;;;;;;;14.13;9.30;;;;;;;5.69;100.00;98314.25;4935570;29;20222;-81
2022/12/05 11:22:18;;;;;;;15.10;8.90;;;;;;;5.77;100.00;98312.97;4935575;29;20593;-82
2022/12/05 11:24:44;;;;;;;14.10;9.07;;;;;;;5.84;100.00;98314.41;4935224;29;20688;-81
2022/12/05 11:27:25;;;;;;;13.47;8.87;;;;;;;5.80;100.00;98307.59;4935065;29;20242;-81
2022/12/05 11:29:59;;;;;;;12.40;8.37;;;;;;;5.74;100.00;98305.25;4935155;29;20233;-82
2022/12/05 11:32:27;;;;;;;11.10;7.63;;;;;;;5.70;100.00;98311.56;4935459;29;20211;-82
2022/12/05 11:35:01;;;;;;;11.17;7.67;;;;;;;5.69;100.00;98301.16;4935246;29;20215;-81
2022/12/05 11:37:32;;;;;;;12.53;8.60;;;;;;;5.73;100.00;98302.72;4935044;29;20234;-81
2022/12/05 11:40:00;;;;;;;13.63;8.97;;;;;;;5.76;100.00;98302.56;4935136;29;20215;-82